createdAt,value
2018-07-23T00:00:16.395Z,92.80
2018-07-23T00:02:45.303Z,92.80
2018-07-23T00:05:14.303Z,92.70
2018-07-23T00:10:11.890Z,92.80
2018-07-23T00:15:09.993Z,93.20
2018-07-23T00:17:38.971Z,92.90
2018-07-23T00:22:36.514Z,93.00
2018-07-23T00:25:05.493Z,92.80
2018-07-23T00:27:34.471Z,93.00
2018-07-23T00:30:03.494Z,93.00
2018-07-23T00:32:32.711Z,93.10
2018-07-23T00:35:01.713Z,93.10
2018-07-23T00:37:30.661Z,93.10
2018-07-23T00:39:59.628Z,93.10
2018-07-23T00:42:28.554Z,93.10
2018-07-23T00:44:57.526Z,93.10
2018-07-23T00:47:26.451Z,92.90
2018-07-23T00:49:55.435Z,93.00
2018-07-23T00:52:24.452Z,93.10
2018-07-23T00:54:53.373Z,93.10
2018-07-23T00:57:22.413Z,93.00
2018-07-23T00:59:51.354Z,93.10
2018-07-23T01:02:20.413Z,93.10
2018-07-23T01:04:49.366Z,93.20
2018-07-23T01:07:18.331Z,93.30
2018-07-23T01:12:27.112Z,93.20
2018-07-23T01:14:55.991Z,93.30
2018-07-23T01:17:24.941Z,92.90
2018-07-23T01:22:24.902Z,93.30
2018-07-23T01:24:54.687Z,93.90
2018-07-23T01:27:23.572Z,93.60
2018-07-23T01:29:52.590Z,93.70
2018-07-23T01:32:21.672Z,93.70
2018-07-23T01:37:19.689Z,93.70
2018-07-23T01:39:48.571Z,93.70
2018-07-23T01:42:17.458Z,93.70
2018-07-23T01:44:46.422Z,93.70
2018-07-23T01:47:15.410Z,93.80
2018-07-23T01:52:12.786Z,93.80
2018-07-23T01:54:41.670Z,93.80
2018-07-23T01:57:10.632Z,93.80
2018-07-23T01:59:39.540Z,93.80
2018-07-23T02:02:08.479Z,93.80
2018-07-23T02:04:38.574Z,93.60
2018-07-23T02:07:08.170Z,93.80
2018-07-23T02:09:37.110Z,93.80
2018-07-23T02:12:06.152Z,93.80
2018-07-23T02:14:35.103Z,93.80
2018-07-23T02:17:04.016Z,93.70
2018-07-23T02:19:33.070Z,93.80
2018-07-23T02:22:02.003Z,93.80
2018-07-23T02:24:31.065Z,93.80
2018-07-23T02:27:00.076Z,93.80
2018-07-23T02:29:29.028Z,93.80
2018-07-23T02:34:26.454Z,94.00
2018-07-23T02:36:55.428Z,94.00
2018-07-23T02:39:24.339Z,94.10
2018-07-23T02:41:53.351Z,94.10
2018-07-23T02:44:22.311Z,94.20
2018-07-23T02:46:51.312Z,94.00
2018-07-23T02:49:21.009Z,94.10
2018-07-23T02:51:49.953Z,94.30
2018-07-23T02:54:18.933Z,94.40
2018-07-23T02:56:48.006Z,94.40
2018-07-23T02:59:16.986Z,94.40
2018-07-23T03:01:45.932Z,94.40
2018-07-23T03:04:14.843Z,94.10
2018-07-23T03:06:45.101Z,94.30
2018-07-23T03:09:14.103Z,94.40
2018-07-23T03:11:43.179Z,94.30
2018-07-23T03:14:12.513Z,94.40
2018-07-23T03:16:41.446Z,94.50
2018-07-23T03:21:39.016Z,94.40
2018-07-23T03:24:07.968Z,94.50
2018-07-23T03:26:36.989Z,94.50
2018-07-23T03:29:06.026Z,94.40
2018-07-23T03:31:35.071Z,94.30
2018-07-23T03:34:03.963Z,94.40
2018-07-23T03:36:32.931Z,94.40
2018-07-23T03:39:01.981Z,94.40
2018-07-23T03:41:32.016Z,94.30
2018-07-23T03:44:01.012Z,94.30
2018-07-23T03:46:29.990Z,94.30
2018-07-23T03:48:58.974Z,94.40
2018-07-23T03:56:24.939Z,94.30
2018-07-23T03:58:53.898Z,94.30
2018-07-23T04:01:22.847Z,94.40
2018-07-23T04:03:51.819Z,94.40
2018-07-23T04:06:20.786Z,94.30
2018-07-23T04:11:18.448Z,94.30
2018-07-23T04:13:48.506Z,94.30
2018-07-23T04:16:17.389Z,94.30
2018-07-23T04:18:46.496Z,94.40
2018-07-23T04:21:15.523Z,94.40
2018-07-23T04:23:44.551Z,94.40
2018-07-23T04:26:13.602Z,94.30
2018-07-23T04:28:42.555Z,94.40
2018-07-23T04:31:11.474Z,94.40
2018-07-23T04:33:40.490Z,94.40
2018-07-23T04:36:09.455Z,94.40
2018-07-23T04:38:38.446Z,94.40
2018-07-23T04:41:07.312Z,94.30
2018-07-23T04:43:36.382Z,94.30
2018-07-23T04:46:05.588Z,94.30
2018-07-23T04:48:35.194Z,94.30
2018-07-23T04:51:04.159Z,94.30
2018-07-23T04:53:33.110Z,94.40
2018-07-23T04:56:02.531Z,94.30
2018-07-23T04:58:31.512Z,94.30
2018-07-23T05:01:00.531Z,94.30
2018-07-23T05:03:29.532Z,94.20
2018-07-23T05:05:58.470Z,94.20
2018-07-23T05:08:27.487Z,94.00
2018-07-23T05:10:56.477Z,94.00
2018-07-23T05:13:25.508Z,93.80
2018-07-23T05:15:54.622Z,93.70
2018-07-23T05:18:23.549Z,93.70
2018-07-23T05:23:21.121Z,92.60
2018-07-23T05:28:18.622Z,93.20
2018-07-23T05:30:47.639Z,93.30
2018-07-23T05:33:16.714Z,93.20
2018-07-23T05:35:45.638Z,93.40
2018-07-23T05:38:14.611Z,93.60
2018-07-23T05:40:43.576Z,93.60
2018-07-23T05:43:12.571Z,93.70
2018-07-23T05:45:41.683Z,93.70
2018-07-23T05:48:10.670Z,93.70
2018-07-23T05:50:39.714Z,93.60
2018-07-23T05:53:08.832Z,93.60
2018-07-23T05:55:37.798Z,93.60
2018-07-23T05:58:06.767Z,93.70
2018-07-23T06:00:35.750Z,93.80
2018-07-23T06:03:04.655Z,93.90
2018-07-23T06:05:33.614Z,93.90
2018-07-23T06:08:02.834Z,94.00
2018-07-23T06:10:32.051Z,94.00
2018-07-23T06:13:01.096Z,94.10
2018-07-23T06:17:58.614Z,94.20
2018-07-23T06:20:27.622Z,94.20
2018-07-23T06:22:56.593Z,94.20
2018-07-23T06:25:25.553Z,94.20
2018-07-23T06:27:54.890Z,94.20
2018-07-23T06:30:23.938Z,94.20
2018-07-23T06:32:52.855Z,94.00
2018-07-23T06:35:21.851Z,94.20
2018-07-23T06:37:50.891Z,94.20
2018-07-23T06:40:20.004Z,94.20
2018-07-23T06:42:48.960Z,94.20
2018-07-23T06:45:17.864Z,94.00
2018-07-23T06:47:46.849Z,94.00
2018-07-23T06:50:15.833Z,94.00
2018-07-23T06:52:44.804Z,94.00
2018-07-23T06:55:13.861Z,93.90
2018-07-23T07:00:11.893Z,93.80
2018-07-23T07:02:41.750Z,93.80
2018-07-23T07:05:10.679Z,93.90
2018-07-23T07:10:08.376Z,93.90
2018-07-23T07:12:37.482Z,93.90
2018-07-23T07:15:06.613Z,93.90
2018-07-23T07:17:35.467Z,93.80
2018-07-23T07:20:04.434Z,93.70
2018-07-23T07:22:33.491Z,93.50
2018-07-23T07:25:02.566Z,92.80
2018-07-23T07:27:31.551Z,93.10
2018-07-23T07:30:00.408Z,93.40
2018-07-23T07:32:29.415Z,93.30
2018-07-23T07:34:58.537Z,93.10
2018-07-23T07:37:27.495Z,93.10
2018-07-23T07:39:56.691Z,93.10
2018-07-23T07:42:25.650Z,93.00
2018-07-23T07:44:54.738Z,92.90
2018-07-23T07:47:23.694Z,93.00
2018-07-23T07:49:52.608Z,92.80
2018-07-23T07:52:21.581Z,92.50
2018-07-23T07:54:50.529Z,92.70
2018-07-23T07:57:19.467Z,92.70
2018-07-23T07:59:48.484Z,92.60
2018-07-23T08:02:17.452Z,92.30
2018-07-23T08:04:46.450Z,92.40
2018-07-23T08:07:15.409Z,92.50
2018-07-23T08:09:44.370Z,92.50
2018-07-23T08:12:13.413Z,92.30
2018-07-23T08:14:42.369Z,91.70
2018-07-23T08:17:11.398Z,91.90
2018-07-23T08:19:40.517Z,92.00
2018-07-23T08:22:09.483Z,91.90
2018-07-23T08:24:38.470Z,91.80
2018-07-23T08:27:07.471Z,91.80
2018-07-23T08:29:36.530Z,91.60
2018-07-23T08:32:05.508Z,91.60
2018-07-23T08:34:40.885Z,91.50
2018-07-23T08:37:09.964Z,91.60
2018-07-23T08:39:38.993Z,91.90
2018-07-23T08:42:07.890Z,91.50
2018-07-23T08:44:36.814Z,91.50
2018-07-23T08:47:05.815Z,91.60
2018-07-23T08:49:34.867Z,91.90
2018-07-23T08:52:03.853Z,91.80
2018-07-23T08:54:32.840Z,91.40
2018-07-23T08:57:01.763Z,91.40
2018-07-23T08:59:30.790Z,91.30
2018-07-23T09:01:59.751Z,91.30
2018-07-23T09:04:28.801Z,91.30
2018-07-23T09:09:26.238Z,91.20
2018-07-23T09:11:55.235Z,91.20
2018-07-23T09:14:24.211Z,91.00
2018-07-23T09:16:53.100Z,91.20
2018-07-23T09:19:22.143Z,91.30
2018-07-23T09:21:51.132Z,91.20
2018-07-23T09:24:20.070Z,90.70
2018-07-23T09:26:49.131Z,90.90
2018-07-23T09:29:18.092Z,90.70
2018-07-23T09:31:47.037Z,90.40
2018-07-23T09:34:16.074Z,90.40
2018-07-23T09:36:45.060Z,90.30
2018-07-23T09:39:14.090Z,88.70
2018-07-23T09:44:11.794Z,89.20
2018-07-23T09:46:40.845Z,88.90
2018-07-23T09:49:09.885Z,88.70
2018-07-23T09:51:38.893Z,88.70
2018-07-23T09:54:07.863Z,88.70
2018-07-23T09:56:36.850Z,88.60
2018-07-23T09:59:05.882Z,88.30
2018-07-23T10:01:34.873Z,87.80
2018-07-23T10:04:03.809Z,87.20
2018-07-23T10:09:01.250Z,87.40
2018-07-23T10:11:30.302Z,87.80
2018-07-23T10:13:59.349Z,88.20
2018-07-23T10:16:28.322Z,88.50
2018-07-23T10:18:58.542Z,89.00
2018-07-23T10:21:27.565Z,88.20
2018-07-23T10:23:56.518Z,87.10
2018-07-23T10:26:25.699Z,87.70
2018-07-23T10:28:54.669Z,88.10
2018-07-23T10:31:23.802Z,87.50
2018-07-23T10:33:52.818Z,86.30
2018-07-23T10:36:21.755Z,85.50
2018-07-23T10:41:19.431Z,85.70
2018-07-23T10:43:48.415Z,85.90
2018-07-23T10:46:17.391Z,85.50
2018-07-23T10:48:46.378Z,85.70
2018-07-23T10:51:15.283Z,86.20
2018-07-23T10:53:44.309Z,86.30
2018-07-23T10:56:13.399Z,86.60
2018-07-23T10:58:42.583Z,85.70
2018-07-23T11:01:11.556Z,86.40
2018-07-23T11:03:40.476Z,85.30
2018-07-23T11:06:09.576Z,84.60
2018-07-23T11:08:38.590Z,84.10
2018-07-23T11:11:07.627Z,84.00
2018-07-23T11:13:36.654Z,82.50
2018-07-23T11:16:05.710Z,83.20
2018-07-23T11:18:34.731Z,81.80
2018-07-23T11:21:03.729Z,82.10
2018-07-23T11:23:32.691Z,80.30
2018-07-23T11:26:01.690Z,79.60
2018-07-23T11:28:30.852Z,80.60
2018-07-23T11:30:59.950Z,81.10
2018-07-23T11:33:28.931Z,78.60
2018-07-23T11:35:57.927Z,78.40
2018-07-23T11:38:26.992Z,79.60
2018-07-23T11:40:56.079Z,76.70
2018-07-23T11:43:25.114Z,74.50
2018-07-23T11:45:54.100Z,75.30
2018-07-23T11:48:23.139Z,74.80
2018-07-23T11:50:52.274Z,74.70
2018-07-23T11:53:21.273Z,65.80
2018-07-23T11:55:50.477Z,69.00
2018-07-23T12:00:48.011Z,64.80
2018-07-23T12:03:20.133Z,66.90
2018-07-23T12:05:49.205Z,61.70
2018-07-23T12:08:18.155Z,62.20
2018-07-23T12:10:47.143Z,60.00
2018-07-23T12:13:16.180Z,62.50
2018-07-23T12:15:46.095Z,56.50
2018-07-23T12:18:15.292Z,56.70
2018-07-23T12:20:44.272Z,54.90
2018-07-23T12:23:13.191Z,56.30
2018-07-23T12:28:10.774Z,54.50
2018-07-23T12:33:08.289Z,55.30
2018-07-23T12:35:37.391Z,54.20
2018-07-23T12:38:06.249Z,54.40
2018-07-23T12:40:35.253Z,54.30
2018-07-23T12:43:04.337Z,52.10
2018-07-23T12:45:33.331Z,50.30
2018-07-23T12:48:02.340Z,52.20
2018-07-23T12:50:31.294Z,48.90
2018-07-23T12:53:00.160Z,48.60
2018-07-23T12:55:29.171Z,49.50
2018-07-23T12:57:58.137Z,50.60
2018-07-23T13:00:27.152Z,48.20
2018-07-23T13:02:56.240Z,49.70
2018-07-23T13:05:30.335Z,49.40
2018-07-23T13:07:59.978Z,47.00
2018-07-23T13:10:28.951Z,47.10
2018-07-23T13:12:57.928Z,45.70
2018-07-23T13:15:26.932Z,46.70
2018-07-23T13:17:55.951Z,46.10
2018-07-23T13:20:24.934Z,46.00
2018-07-23T13:22:53.929Z,42.50
2018-07-23T13:25:22.959Z,43.50
2018-07-23T13:27:52.188Z,42.70
2018-07-23T13:30:21.153Z,41.80
2018-07-23T13:32:50.395Z,40.50
2018-07-23T13:35:19.373Z,39.60
2018-07-23T13:37:48.737Z,37.70
2018-07-23T13:42:46.440Z,35.70
2018-07-23T13:45:15.423Z,36.40
2018-07-23T13:47:44.473Z,33.90
2018-07-23T13:50:13.411Z,35.20
2018-07-23T13:52:42.386Z,33.10
2018-07-23T13:57:41.019Z,33.90
2018-07-23T14:00:09.978Z,33.70
2018-07-23T14:02:38.934Z,32.10
2018-07-23T14:05:08.050Z,33.00
2018-07-23T14:07:37.073Z,31.70
2018-07-23T14:12:34.642Z,31.90
2018-07-23T14:15:03.564Z,30.30
2018-07-23T14:17:32.555Z,30.90
2018-07-23T14:20:01.661Z,31.00
2018-07-23T14:22:30.750Z,31.40
2018-07-23T14:24:59.671Z,30.00
2018-07-23T14:27:28.650Z,30.00
2018-07-23T14:29:57.553Z,29.80
2018-07-23T14:32:26.574Z,30.40
2018-07-23T14:34:55.514Z,30.90
2018-07-23T14:37:25.752Z,30.50
2018-07-23T14:39:55.272Z,29.00
2018-07-23T14:42:24.298Z,30.00
2018-07-23T14:44:53.358Z,29.60
2018-07-23T14:47:22.390Z,30.70
2018-07-23T14:49:51.430Z,28.80
2018-07-23T14:52:20.334Z,29.10
2018-07-23T14:54:49.312Z,28.10
2018-07-23T14:57:18.332Z,28.30
2018-07-23T14:59:47.925Z,29.10
2018-07-23T15:02:17.069Z,28.40
2018-07-23T15:04:46.051Z,27.20
2018-07-23T15:07:15.091Z,28.80
2018-07-23T15:09:44.057Z,29.00
2018-07-23T15:17:10.114Z,27.30
2018-07-23T15:19:39.093Z,26.60
2018-07-23T15:22:08.320Z,28.10
2018-07-23T15:27:05.828Z,28.70
2018-07-23T15:29:34.859Z,27.40
2018-07-23T15:32:03.857Z,26.60
2018-07-23T15:34:33.006Z,26.70
2018-07-23T15:37:02.014Z,28.30
2018-07-23T15:39:31.279Z,29.10
2018-07-23T15:42:00.194Z,26.20
2018-07-23T15:44:29.364Z,28.60
2018-07-23T15:46:58.057Z,28.80
2018-07-23T15:49:27.063Z,29.20
2018-07-23T15:54:24.617Z,30.00
2018-07-23T15:56:53.541Z,28.10
2018-07-23T15:59:22.680Z,30.10
2018-07-23T16:01:51.791Z,30.40
2018-07-23T16:04:20.833Z,30.60
2018-07-23T16:06:49.794Z,30.50
2018-07-23T16:09:18.771Z,30.60
2018-07-23T16:11:47.747Z,30.90
2018-07-23T16:14:16.795Z,30.60
2018-07-23T16:16:45.731Z,30.00
2018-07-23T16:19:14.772Z,30.00
2018-07-23T16:24:12.577Z,30.00
2018-07-23T16:26:41.572Z,30.70
2018-07-23T16:29:10.652Z,31.80
2018-07-23T16:31:39.628Z,33.20
2018-07-23T16:34:08.754Z,34.90
2018-07-23T16:36:37.887Z,37.30
2018-07-23T16:39:10.351Z,39.90
2018-07-23T16:41:39.334Z,42.90
2018-07-23T16:44:08.735Z,45.40
2018-07-23T16:46:37.934Z,47.50
2018-07-23T16:49:07.005Z,49.30
2018-07-23T16:54:04.499Z,53.90
2018-07-23T16:56:33.491Z,56.00
2018-07-23T16:59:02.710Z,58.10
2018-07-23T17:01:31.696Z,59.50
2018-07-23T17:04:00.903Z,61.90
2018-07-23T17:06:29.851Z,63.70
2018-07-23T17:11:27.471Z,66.60
2018-07-23T17:13:56.654Z,67.10
2018-07-23T17:16:25.651Z,68.30
2018-07-23T17:18:54.671Z,69.10
2018-07-23T17:21:23.651Z,69.70
2018-07-23T17:23:52.609Z,69.80
2018-07-23T17:28:50.190Z,71.10
2018-07-23T17:31:19.231Z,71.40
2018-07-23T17:33:48.333Z,71.80
2018-07-23T17:36:17.374Z,72.50
2018-07-23T17:38:46.253Z,73.50
2018-07-23T17:41:15.320Z,74.00
2018-07-23T17:43:44.319Z,74.60
2018-07-23T17:46:13.425Z,74.90
2018-07-23T17:48:42.532Z,75.20
2018-07-23T17:51:11.516Z,75.20
2018-07-23T17:53:40.453Z,75.40
2018-07-23T17:56:09.451Z,75.70
2018-07-23T17:58:38.471Z,76.10
2018-07-23T18:01:07.532Z,76.60
2018-07-23T18:03:36.728Z,76.80
2018-07-23T18:06:05.750Z,77.20
2018-07-23T18:08:34.652Z,77.50
2018-07-23T18:11:03.642Z,77.50
2018-07-23T18:13:35.393Z,77.50
2018-07-23T18:16:04.389Z,78.00
2018-07-23T18:18:33.431Z,77.90
2018-07-23T18:21:02.453Z,77.90
2018-07-23T18:23:31.795Z,77.70
2018-07-23T18:26:00.790Z,78.00
2018-07-23T18:28:29.797Z,78.20
2018-07-23T18:30:58.803Z,78.60
2018-07-23T18:35:56.335Z,79.20
2018-07-23T18:38:25.426Z,79.30
2018-07-23T18:40:54.391Z,79.40
2018-07-23T18:43:23.343Z,79.60
2018-07-23T18:45:52.265Z,80.50
2018-07-23T18:49:30.535Z,81.00
2018-07-23T18:51:59.593Z,81.60
2018-07-23T18:54:29.796Z,82.20
2018-07-23T18:57:00.012Z,82.60
2018-07-23T18:59:30.071Z,83.20
2018-07-23T19:01:59.685Z,83.60
2018-07-23T19:04:28.721Z,83.80
2018-07-23T19:06:57.751Z,84.10
2018-07-23T19:09:27.431Z,84.30
2018-07-23T19:11:57.390Z,84.40
2018-07-23T19:14:26.356Z,85.00
2018-07-23T19:16:56.234Z,85.00
2018-07-23T19:19:25.294Z,85.10
2018-07-23T19:21:54.428Z,85.00
2018-07-23T19:24:23.491Z,85.20
2018-07-23T19:26:52.513Z,86.00
2018-07-23T19:29:21.545Z,85.60
2018-07-23T19:34:19.057Z,85.90
2018-07-23T19:36:48.250Z,86.00
2018-07-23T19:39:18.731Z,84.80
2018-07-23T19:44:16.247Z,84.40
2018-07-23T19:46:45.307Z,84.60
2018-07-23T19:49:14.371Z,85.30
2018-07-23T19:51:43.428Z,85.60
2018-07-23T19:54:12.752Z,86.00
2018-07-23T19:56:43.173Z,85.80
2018-07-23T19:59:12.174Z,85.80
2018-07-23T20:01:41.214Z,86.20
2018-07-23T20:06:38.930Z,86.10
2018-07-23T20:09:10.007Z,86.20
2018-07-23T20:11:39.052Z,85.60
2018-07-23T20:14:08.122Z,85.10
2018-07-23T20:16:37.032Z,85.80
2018-07-23T20:21:34.928Z,85.40
2018-07-23T20:24:03.951Z,85.30
2018-07-23T20:26:32.955Z,85.70
2018-07-23T20:29:02.092Z,86.00
2018-07-23T20:33:59.761Z,85.80
2018-07-23T20:36:28.868Z,86.30
2018-07-23T20:38:57.878Z,86.20
2018-07-23T20:41:26.915Z,86.50
2018-07-23T20:43:55.894Z,86.20
2018-07-23T20:46:24.933Z,86.60
2018-07-23T20:48:53.910Z,86.70
2018-07-23T20:51:22.994Z,86.50
2018-07-23T20:53:52.027Z,86.30
2018-07-23T20:56:21.060Z,87.10
2018-07-23T20:58:50.200Z,86.90
2018-07-23T21:01:19.233Z,87.60
2018-07-23T21:03:48.198Z,87.70
2018-07-23T21:06:17.213Z,87.90
2018-07-23T21:08:46.171Z,88.20
2018-07-23T21:11:15.253Z,88.40
2018-07-23T21:13:44.330Z,87.80
2018-07-23T21:16:13.216Z,88.40
2018-07-23T21:18:42.231Z,88.80
2018-07-23T21:21:11.594Z,89.10
2018-07-23T21:23:40.637Z,89.40
2018-07-23T21:26:09.718Z,89.60
2018-07-23T21:28:38.663Z,89.80
2018-07-23T21:31:07.970Z,89.50
2018-07-23T21:33:37.040Z,89.30
2018-07-23T21:41:03.075Z,89.70
2018-07-23T21:43:32.959Z,90.00
2018-07-23T21:46:01.964Z,90.00
2018-07-23T21:48:31.141Z,90.30
2018-07-23T21:51:00.136Z,90.40
2018-07-23T21:53:29.174Z,90.40
2018-07-23T21:55:58.171Z,90.40
2018-07-23T21:58:27.230Z,90.50
2018-07-23T22:00:56.217Z,90.60
2018-07-23T22:03:25.243Z,90.70
2018-07-23T22:05:54.205Z,90.80
2018-07-23T22:08:23.235Z,90.80
2018-07-23T22:10:52.257Z,90.70
2018-07-23T22:15:49.968Z,91.20
2018-07-23T22:18:18.954Z,90.80
2018-07-23T22:20:48.017Z,91.20
2018-07-23T22:25:45.488Z,91.20
2018-07-23T22:28:14.494Z,91.10
2018-07-23T22:35:41.583Z,91.20
2018-07-23T22:38:10.551Z,91.10
2018-07-23T22:40:39.598Z,91.00
2018-07-23T22:43:08.679Z,91.30
2018-07-23T22:45:37.670Z,91.30
2018-07-23T22:48:06.613Z,91.10
2018-07-23T22:50:35.629Z,91.20
2018-07-23T22:55:33.162Z,91.30
2018-07-23T22:58:02.174Z,91.30
2018-07-23T23:00:31.332Z,91.30
2018-07-23T23:03:00.317Z,91.30
2018-07-23T23:05:29.350Z,91.40
2018-07-23T23:07:58.423Z,91.40
2018-07-23T23:10:27.399Z,91.50
2018-07-23T23:12:56.426Z,91.50
2018-07-23T23:15:25.309Z,91.60
2018-07-23T23:17:54.290Z,91.60
2018-07-23T23:20:23.247Z,91.60
2018-07-23T23:25:20.789Z,91.50
2018-07-23T23:27:49.694Z,91.60
2018-07-23T23:30:18.734Z,91.60
2018-07-23T23:32:47.751Z,91.60
2018-07-23T23:35:16.692Z,91.60
2018-07-23T23:40:14.645Z,92.00
2018-07-23T23:42:43.713Z,91.80
2018-07-23T23:45:12.812Z,91.90
2018-07-23T23:47:41.871Z,91.90
2018-07-23T23:50:10.763Z,92.00
2018-07-23T23:52:39.756Z,91.80
2018-07-23T23:57:37.229Z,91.90
